This is the latest recevied weather packets stored in our database for station/object IZ1BLA-10. If no packets are shown the sender has not sent any weather packets the latest 10 day(s).
| Time | Temp. | Humidity | Pressure | Rain* | Wind** | Luminosity | Snow |
|---|---|---|---|---|---|---|---|
| 1777786749 | 11.11° C | 63% | 1020.7 hPa | - | - | - | - |
| 1777786149 | 10.56° C | 65% | 1020.8 hPa | - | - | - | - |
| 1777785549 | 11.67° C | 63% | 1020.4 hPa | - | - | - | - |
| 1777784949 | 10.56° C | 69% | 1020.8 hPa | - | - | - | - |
| 1777784350 | 10° C | 62% | 1020.9 hPa | - | - | - | - |
| 1777783149 | 10° C | 63% | 1020.6 hPa | - | - | - | - |
| 1777782550 | 9.44° C | 65% | 1020.9 hPa | - | - | - | - |
| 1777781949 | 9.44° C | 70% | 1020.9 hPa | - | - | - | - |
| 1777781349 | 9.44° C | 66% | 1021 hPa | - | - | - | - |
| 1777780750 | 9.44° C | 65% | 1021 hPa | - | - | - | - |
| 1777780149 | 9.44° C | 67% | 1021 hPa | - | - | - | - |
| 1777779550 | 9.44° C | 65% | 1021.1 hPa | - | - | - | - |
| 1777778949 | 9.44° C | 65% | 1021.1 hPa | - | - | - | - |
| 1777778350 | 10° C | 66% | 1021 hPa | - | - | - | - |
| 1777777750 | 9.44° C | 69% | 1021.3 hPa | - | - | - | - |
| 1777777150 | 10° C | 73% | 1021.3 hPa | - | - | - | - |
| 1777776549 | 10° C | 67% | 1021.3 hPa | - | - | - | - |
| 1777775949 | 10° C | 67% | 1021.3 hPa | - | - | - | - |
| 1777775349 | 10° C | 71% | 1021.3 hPa | - | - | - | - |
| 1777774749 | 10° C | 72% | 1021.5 hPa | - | - | - | - |
| 1777774149 | 10.56° C | 72% | 1021.3 hPa | - | - | - | - |
| 1777773549 | 10° C | 75% | 1021.5 hPa | - | - | - | - |
| 1777772949 | 10.56° C | 69% | 1021.4 hPa | - | - | - | - |
| 1777772349 | 10° C | 70% | 1021.7 hPa | - | - | - | - |
| 1777771750 | 10° C | 70% | 1021.7 hPa | - | - | - | - |
* Rain since midnight (hover to see other rain measurements)
** Current wind speed in m/s (hover to see current wind gust speed)